createdAt,value
2024-03-05T00:01:19.182Z,31.37
2024-03-05T00:03:49.871Z,30.33
2024-03-05T00:06:18.756Z,30.37
2024-03-05T00:08:47.243Z,29.83
2024-03-05T00:11:15.926Z,32.73
2024-03-05T00:13:44.603Z,30.67
2024-03-05T00:16:13.179Z,30.13
2024-03-05T00:18:41.913Z,28.93
2024-03-05T00:21:11.822Z,28.87
2024-03-05T00:23:40.551Z,28.73
2024-03-05T00:26:09.570Z,30.27
2024-03-05T00:28:38.796Z,30.63
2024-03-05T00:31:07.984Z,30.93
2024-03-05T00:33:36.630Z,30.57
2024-03-05T00:36:06.599Z,32.03
2024-03-05T00:38:37.141Z,29.33
2024-03-05T00:41:07.401Z,31.07
2024-03-05T00:43:36.101Z,30.47
2024-03-05T00:46:05.240Z,29.13
2024-03-05T00:48:34.659Z,29.10
2024-03-05T00:51:03.658Z,29.77
2024-03-05T00:53:32.548Z,29.93
2024-03-05T00:56:02.622Z,29.00
2024-03-05T00:58:31.228Z,25.73
2024-03-05T01:00:59.894Z,30.27
2024-03-05T01:03:28.550Z,28.00
2024-03-05T01:05:57.504Z,28.07
2024-03-05T01:08:26.048Z,29.70
2024-03-05T01:10:54.750Z,28.63
2024-03-05T01:13:24.795Z,28.53
2024-03-05T01:15:56.715Z,27.30
2024-03-05T01:18:25.425Z,29.37
2024-03-05T01:20:54.438Z,29.03
2024-03-05T01:23:25.570Z,29.03
2024-03-05T01:25:54.107Z,28.23
2024-03-05T01:28:24.064Z,30.57
2024-03-05T01:30:53.699Z,28.47
2024-03-05T01:33:23.821Z,28.63
2024-03-05T01:35:53.203Z,27.57
2024-03-05T01:38:22.836Z,28.77
2024-03-05T01:40:51.541Z,28.43
2024-03-05T01:43:21.442Z,29.97
2024-03-05T01:45:53.545Z,27.77
2024-03-05T01:48:22.565Z,28.37
2024-03-05T01:50:51.291Z,26.50
2024-03-05T01:53:20.902Z,26.90
2024-03-05T01:55:52.524Z,27.83
2024-03-05T01:58:21.481Z,27.97
2024-03-05T02:00:51.778Z,26.33
2024-03-05T02:03:21.334Z,28.57
2024-03-05T02:05:54.960Z,28.30
2024-03-05T02:08:23.682Z,28.30
2024-03-05T02:10:52.285Z,30.90
2024-03-05T02:13:21.433Z,29.50
2024-03-05T02:15:51.753Z,31.97
2024-03-05T02:18:20.276Z,29.70
2024-03-05T02:20:48.905Z,30.63
2024-03-05T02:23:18.786Z,29.87
2024-03-05T02:25:48.012Z,32.57
2024-03-05T02:28:17.059Z,31.43
2024-03-05T02:30:49.111Z,32.17
2024-03-05T02:33:18.532Z,30.50
2024-03-05T02:35:48.847Z,32.43
2024-03-05T02:38:19.076Z,34.27
2024-03-05T02:40:47.635Z,31.60
2024-03-05T02:43:16.810Z,34.57
2024-03-05T02:45:45.385Z,32.37
2024-03-05T02:48:14.280Z,33.10
2024-03-05T02:50:42.750Z,33.57
2024-03-05T02:53:11.293Z,34.70
2024-03-05T02:55:42.609Z,33.13
2024-03-05T02:58:12.211Z,33.47
2024-03-05T03:00:41.473Z,33.60
2024-03-05T03:03:10.097Z,34.33
2024-03-05T03:05:39.516Z,36.07
2024-03-05T03:08:08.424Z,32.53
2024-03-05T03:10:37.020Z,34.43
2024-03-05T03:13:07.148Z,35.03
2024-03-05T03:15:36.515Z,33.87
2024-03-05T03:18:06.608Z,33.77
2024-03-05T03:20:35.557Z,32.43
2024-03-05T03:23:04.348Z,33.43
2024-03-05T03:25:35.774Z,35.40
2024-03-05T03:28:09.133Z,33.87
2024-03-05T03:30:38.163Z,33.87
2024-03-05T03:33:07.068Z,33.47
2024-03-05T03:35:36.281Z,35.37
2024-03-05T03:38:05.476Z,32.93
2024-03-05T03:40:35.320Z,34.53
2024-03-05T03:43:04.123Z,34.97
2024-03-05T03:45:33.997Z,32.57
2024-03-05T03:48:04.042Z,32.27
2024-03-05T03:50:33.974Z,33.67
2024-03-05T03:53:02.890Z,29.43
2024-03-05T03:55:31.767Z,32.33
2024-03-05T03:58:00.237Z,32.07
2024-03-05T04:00:30.586Z,32.03
2024-03-05T04:03:00.923Z,32.77
2024-03-05T04:05:29.503Z,33.27
2024-03-05T04:07:59.075Z,31.67
2024-03-05T04:10:29.339Z,31.90
2024-03-05T04:12:58.426Z,34.17
2024-03-05T04:15:27.124Z,31.03
2024-03-05T04:17:55.865Z,29.43
2024-03-05T04:20:26.556Z,29.60
2024-03-05T04:22:55.331Z,30.60
2024-03-05T04:25:28.497Z,32.50
2024-03-05T04:27:57.274Z,31.57
2024-03-05T04:30:25.912Z,29.43
2024-03-05T04:33:05.162Z,29.43
2024-03-05T04:35:35.298Z,30.47
2024-03-05T04:38:06.786Z,26.27
2024-03-05T04:40:35.791Z,28.80
2024-03-05T04:43:04.644Z,28.23
2024-03-05T04:45:33.153Z,27.90
2024-03-05T04:48:02.097Z,22.03
2024-03-05T04:50:31.454Z,25.27
2024-03-05T04:53:01.451Z,22.37
2024-03-05T04:55:30.166Z,23.33
2024-03-05T04:57:58.730Z,23.73
2024-03-05T05:00:27.257Z,21.07
2024-03-05T05:02:55.788Z,22.87
2024-03-05T05:05:27.330Z,22.30
2024-03-05T05:07:58.478Z,21.80
2024-03-05T05:10:28.894Z,21.50
2024-03-05T05:12:58.167Z,21.60
2024-03-05T05:15:26.978Z,21.13
2024-03-05T05:17:55.541Z,22.20
2024-03-05T05:20:24.654Z,23.03
2024-03-05T05:22:53.396Z,22.23
2024-03-05T05:25:23.562Z,24.00
2024-03-05T05:27:54.098Z,25.73
2024-03-05T05:30:25.129Z,25.20
2024-03-05T05:32:56.144Z,25.00
2024-03-05T05:35:25.380Z,27.10
2024-03-05T05:37:54.481Z,25.17
2024-03-05T05:40:23.379Z,30.37
2024-03-05T05:42:53.977Z,30.57
2024-03-05T05:45:25.095Z,30.33
2024-03-05T05:47:55.605Z,30.60
2024-03-05T05:50:30.456Z,30.80
2024-03-05T05:53:00.831Z,30.00
2024-03-05T05:55:31.494Z,30.17
2024-03-05T05:58:05.590Z,28.50
2024-03-05T06:00:35.179Z,29.13
2024-03-05T06:03:08.128Z,28.17
2024-03-05T06:05:37.499Z,31.07
2024-03-05T06:08:12.067Z,28.33
2024-03-05T06:10:43.129Z,26.93
2024-03-05T06:13:13.483Z,25.00
2024-03-05T06:15:42.299Z,23.93
2024-03-05T06:18:11.220Z,20.93
2024-03-05T06:20:40.545Z,20.43
2024-03-05T06:23:09.394Z,22.37
2024-03-05T06:25:38.020Z,23.87
2024-03-05T06:28:09.791Z,21.87
2024-03-05T06:30:44.829Z,25.43
2024-03-05T06:33:14.906Z,22.20
2024-03-05T06:35:44.223Z,24.17
2024-03-05T06:38:13.043Z,21.50
2024-03-05T06:40:42.136Z,21.17
2024-03-05T06:43:17.075Z,21.80
2024-03-05T06:45:48.133Z,20.63
2024-03-05T06:48:25.044Z,18.80
2024-03-05T06:50:59.098Z,20.03
2024-03-05T06:53:45.411Z,18.60
2024-03-05T06:56:31.512Z,23.83
2024-03-05T06:59:00.319Z,24.80
2024-03-05T07:01:33.599Z,25.40
2024-03-05T07:04:07.919Z,23.13
2024-03-05T07:06:37.190Z,23.73
2024-03-05T07:09:06.185Z,22.70
2024-03-05T07:11:36.048Z,21.27
2024-03-05T07:14:04.999Z,20.63
2024-03-05T07:16:35.452Z,19.33
2024-03-05T07:19:04.846Z,19.53
2024-03-05T07:21:37.710Z,17.23
2024-03-05T07:24:07.118Z,16.00
2024-03-05T07:26:36.064Z,16.03
2024-03-05T07:29:05.011Z,15.40
2024-03-05T07:31:38.125Z,15.37
2024-03-05T07:34:07.192Z,13.97
2024-03-05T07:36:38.529Z,15.10
2024-03-05T07:39:12.846Z,15.17
2024-03-05T07:41:42.082Z,16.50
2024-03-05T07:44:11.766Z,16.07
2024-03-05T07:46:43.536Z,18.40
2024-03-05T07:49:12.429Z,19.07
2024-03-05T07:51:45.091Z,20.23
2024-03-05T07:54:15.319Z,20.70
2024-03-05T07:56:45.015Z,21.73
2024-03-05T07:59:14.774Z,22.90
2024-03-05T08:01:47.110Z,21.23
2024-03-05T08:04:15.986Z,17.17
2024-03-05T08:06:44.492Z,15.43
2024-03-05T08:09:13.532Z,17.77
2024-03-05T08:11:42.299Z,14.97
2024-03-05T08:14:11.400Z,15.17
2024-03-05T08:16:40.697Z,15.03
2024-03-05T08:19:11.079Z,16.80
2024-03-05T08:21:40.390Z,13.50
2024-03-05T08:24:10.748Z,14.40
2024-03-05T08:26:39.470Z,16.70
2024-03-05T08:29:09.081Z,15.03
2024-03-05T08:31:37.803Z,15.37
2024-03-05T08:34:07.047Z,15.63
2024-03-05T08:36:38.593Z,15.10
2024-03-05T08:39:18.998Z,15.50
2024-03-05T08:41:49.066Z,15.67
2024-03-05T08:44:19.094Z,15.40
2024-03-05T08:46:47.715Z,16.80
2024-03-05T08:49:16.425Z,15.23
2024-03-05T08:51:46.912Z,17.00
2024-03-05T08:54:17.982Z,16.33
2024-03-05T08:56:47.686Z,15.97
2024-03-05T08:59:16.665Z,17.83
2024-03-05T09:01:45.357Z,17.53
2024-03-05T09:04:13.993Z,17.77
2024-03-05T09:06:43.055Z,16.67
2024-03-05T09:09:13.731Z,17.87
2024-03-05T09:11:42.382Z,17.47
2024-03-05T09:14:11.880Z,16.10
2024-03-05T09:16:40.994Z,16.10
2024-03-05T09:19:16.410Z,17.20
2024-03-05T09:21:47.336Z,15.93
2024-03-05T09:24:18.418Z,14.40
2024-03-05T09:26:48.712Z,14.00
2024-03-05T09:29:18.130Z,14.50
2024-03-05T09:31:48.108Z,15.23
2024-03-05T09:34:17.444Z,15.40
2024-03-05T09:36:46.017Z,14.23
2024-03-05T09:39:19.581Z,15.40
2024-03-05T09:41:50.052Z,13.33
2024-03-05T09:44:20.480Z,14.57
2024-03-05T09:46:50.831Z,13.87
2024-03-05T09:49:23.264Z,13.93
2024-03-05T09:51:54.631Z,14.10
2024-03-05T09:54:24.885Z,13.70
2024-03-05T09:56:56.527Z,14.73
2024-03-05T09:59:27.126Z,14.13
2024-03-05T10:01:55.962Z,14.30
2024-03-05T10:04:28.201Z,14.30
2024-03-05T10:06:57.222Z,14.27
2024-03-05T10:09:28.522Z,15.57
2024-03-05T10:11:57.124Z,16.50
2024-03-05T10:14:26.633Z,16.30
2024-03-05T10:17:03.095Z,15.83
2024-03-05T10:19:43.694Z,14.67
2024-03-05T10:22:13.252Z,15.27
2024-03-05T10:24:43.691Z,14.67
2024-03-05T10:27:15.575Z,14.17
2024-03-05T10:29:44.201Z,14.43
2024-03-05T10:32:18.298Z,14.13
2024-03-05T10:34:47.561Z,14.93
2024-03-05T10:37:21.148Z,13.60
2024-03-05T10:39:56.633Z,13.90
2024-03-05T10:42:26.924Z,14.57
2024-03-05T10:44:56.551Z,13.70
2024-03-05T10:47:28.194Z,13.70
2024-03-05T10:49:58.387Z,12.77
2024-03-05T10:52:30.804Z,13.13
2024-03-05T10:55:06.060Z,13.37
2024-03-05T10:57:55.111Z,14.23
2024-03-05T11:00:25.389Z,13.63
2024-03-05T11:02:58.223Z,14.47
2024-03-05T11:05:30.648Z,11.17
2024-03-05T11:07:59.980Z,12.37
2024-03-05T11:10:35.651Z,12.47
2024-03-05T11:13:07.977Z,13.47
2024-03-05T11:15:40.334Z,12.50
2024-03-05T11:18:30.898Z,11.93
2024-03-05T11:21:02.961Z,11.90
2024-03-05T11:23:34.121Z,13.77
2024-03-05T11:26:09.010Z,11.47
2024-03-05T11:28:41.532Z,11.70
2024-03-05T11:31:20.369Z,12.47
2024-03-05T11:33:59.907Z,13.63
2024-03-05T11:36:29.115Z,11.90
2024-03-05T11:39:07.083Z,11.83
2024-03-05T11:41:43.087Z,12.47
2024-03-05T11:44:14.707Z,12.27
2024-03-05T11:46:45.398Z,11.43
2024-03-05T11:49:15.454Z,12.10
2024-03-05T11:51:46.037Z,11.50
2024-03-05T11:54:19.409Z,12.30
2024-03-05T11:56:59.481Z,12.13
2024-03-05T11:59:36.146Z,12.60
2024-03-05T12:02:11.764Z,12.77
2024-03-05T12:04:41.708Z,12.03
2024-03-05T12:07:14.659Z,11.50
2024-03-05T12:09:45.090Z,11.37
2024-03-05T12:12:18.030Z,11.80
2024-03-05T12:14:56.442Z,9.83
2024-03-05T12:17:26.357Z,10.87
2024-03-05T12:20:00.061Z,10.83
2024-03-05T12:22:29.461Z,11.20
2024-03-05T12:24:59.104Z,10.40
2024-03-05T12:27:29.641Z,9.80
2024-03-05T12:30:02.832Z,10.03
2024-03-05T12:32:34.220Z,10.70
2024-03-05T12:35:03.670Z,11.03
2024-03-05T12:37:32.710Z,10.27
2024-03-05T12:40:06.336Z,10.67
2024-03-05T12:42:37.005Z,11.00
2024-03-05T12:45:09.673Z,10.57
2024-03-05T12:47:40.067Z,11.07
2024-03-05T12:50:10.709Z,11.63
2024-03-05T12:52:42.700Z,11.33
2024-03-05T12:55:14.670Z,9.57
2024-03-05T12:57:52.301Z,10.90
2024-03-05T13:00:22.307Z,10.83
2024-03-05T13:02:54.446Z,11.47
2024-03-05T13:05:25.759Z,10.80
2024-03-05T13:07:55.284Z,10.60
2024-03-05T13:10:24.422Z,11.00
2024-03-05T13:12:54.912Z,12.27
2024-03-05T13:15:23.708Z,10.53
2024-03-05T13:17:52.591Z,11.27
2024-03-05T13:20:21.605Z,12.67
2024-03-05T13:22:51.858Z,12.17
2024-03-05T13:25:21.006Z,13.07
2024-03-05T13:27:51.872Z,12.60
2024-03-05T13:30:22.722Z,12.97
2024-03-05T13:32:54.034Z,12.07
2024-03-05T13:35:23.702Z,13.03
2024-03-05T13:37:52.404Z,13.03
2024-03-05T13:40:22.328Z,11.70
2024-03-05T13:42:51.212Z,12.83
2024-03-05T13:45:21.403Z,13.30
2024-03-05T13:47:50.214Z,12.10
2024-03-05T13:50:22.103Z,14.03
2024-03-05T13:52:50.929Z,13.37
2024-03-05T13:55:25.682Z,15.10
2024-03-05T13:57:54.302Z,15.83
2024-03-05T14:00:27.681Z,14.23
2024-03-05T14:02:59.369Z,14.73
2024-03-05T14:05:29.796Z,13.67
2024-03-05T14:07:59.380Z,12.87
2024-03-05T14:10:30.798Z,13.60
2024-03-05T14:12:59.613Z,14.53
2024-03-05T14:15:29.677Z,13.80
2024-03-05T14:17:59.303Z,14.87
2024-03-05T14:20:29.792Z,15.73
2024-03-05T14:23:00.763Z,15.77
2024-03-05T14:25:30.352Z,15.40
2024-03-05T14:28:00.409Z,15.50
2024-03-05T14:30:31.386Z,14.07
2024-03-05T14:33:01.252Z,12.90
2024-03-05T14:35:31.735Z,15.10
2024-03-05T14:38:01.056Z,15.83
2024-03-05T14:40:29.827Z,15.37
2024-03-05T14:42:58.407Z,15.77
2024-03-05T14:45:27.011Z,15.13
2024-03-05T14:47:57.136Z,15.77
2024-03-05T14:50:25.887Z,17.27
2024-03-05T14:52:54.987Z,15.63
2024-03-05T14:55:27.035Z,15.17
2024-03-05T14:57:56.121Z,14.93
2024-03-05T15:00:27.049Z,14.80
2024-03-05T15:03:00.201Z,14.70
2024-03-05T15:05:30.415Z,13.83
2024-03-05T15:07:59.319Z,14.97
2024-03-05T15:10:29.918Z,15.20
2024-03-05T15:12:59.164Z,15.70
2024-03-05T15:15:28.075Z,14.90
2024-03-05T15:17:58.122Z,14.87
2024-03-05T15:20:27.818Z,14.13
2024-03-05T15:22:56.520Z,13.80
2024-03-05T15:25:25.878Z,13.80
2024-03-05T15:28:02.071Z,17.00
2024-03-05T15:30:34.863Z,14.87
2024-03-05T15:33:07.714Z,15.07
2024-03-05T15:35:36.391Z,15.47
2024-03-05T15:38:08.772Z,15.00
2024-03-05T15:40:39.040Z,14.97
2024-03-05T15:43:08.877Z,14.17
2024-03-05T15:45:39.838Z,13.97
2024-03-05T15:48:12.781Z,16.23
2024-03-05T15:50:42.971Z,15.80
2024-03-05T15:53:12.111Z,15.00
2024-03-05T15:55:46.688Z,16.57
2024-03-05T15:58:42.258Z,16.10
2024-03-05T16:01:11.329Z,14.87
2024-03-05T16:03:56.968Z,14.87
2024-03-05T16:06:31.825Z,14.70
2024-03-05T16:09:06.589Z,14.50
2024-03-05T16:11:38.336Z,15.87
2024-03-05T16:14:07.209Z,16.83
2024-03-05T16:16:38.872Z,16.13
2024-03-05T16:19:10.282Z,15.93
2024-03-05T16:21:40.417Z,17.17
2024-03-05T16:24:10.673Z,16.23
2024-03-05T16:26:39.324Z,16.83
2024-03-05T16:29:08.652Z,15.77
2024-03-05T16:31:37.438Z,14.00
2024-03-05T16:34:07.087Z,15.40
2024-03-05T16:36:37.524Z,15.70
2024-03-05T16:39:08.910Z,14.97
2024-03-05T16:41:37.534Z,14.53
2024-03-05T16:44:12.893Z,16.77
2024-03-05T16:46:42.263Z,13.63
2024-03-05T16:49:11.068Z,13.60
2024-03-05T16:51:43.238Z,13.90
2024-03-05T16:54:11.853Z,13.43
2024-03-05T16:56:42.632Z,13.57
2024-03-05T16:59:12.013Z,14.40
2024-03-05T17:01:40.625Z,13.13
2024-03-05T17:04:14.624Z,12.77
2024-03-05T17:06:46.819Z,12.53
2024-03-05T17:09:16.531Z,12.00
2024-03-05T17:11:46.547Z,10.93
2024-03-05T17:14:15.195Z,11.07
2024-03-05T17:16:47.052Z,9.30
2024-03-05T17:19:15.933Z,10.17
2024-03-05T17:21:50.293Z,9.30
2024-03-05T17:24:21.726Z,9.53
2024-03-05T17:26:50.781Z,8.97
2024-03-05T17:29:19.768Z,8.90
2024-03-05T17:31:48.567Z,8.30
2024-03-05T17:34:17.809Z,8.53
2024-03-05T17:36:48.272Z,11.47
2024-03-05T17:39:17.203Z,10.27
2024-03-05T17:41:46.687Z,8.60
2024-03-05T17:44:15.533Z,8.43
2024-03-05T17:46:44.254Z,8.63
2024-03-05T17:49:13.577Z,8.87
2024-03-05T17:51:42.624Z,9.07
2024-03-05T17:54:12.599Z,8.97
2024-03-05T17:56:41.379Z,9.00
2024-03-05T17:59:12.603Z,9.63
2024-03-05T18:01:43.852Z,8.77
2024-03-05T18:04:12.918Z,8.27
2024-03-05T18:06:42.139Z,10.07
2024-03-05T18:09:19.687Z,9.50
2024-03-05T18:11:49.520Z,9.83
2024-03-05T18:14:19.749Z,9.83
2024-03-05T18:16:48.421Z,10.33
2024-03-05T18:19:18.060Z,10.10
2024-03-05T18:21:48.175Z,9.67
2024-03-05T18:24:18.302Z,9.87
2024-03-05T18:26:47.567Z,8.03
2024-03-05T18:29:16.303Z,8.47
2024-03-05T18:31:49.872Z,8.20
2024-03-05T18:34:19.266Z,8.73
2024-03-05T18:36:50.901Z,7.57
2024-03-05T18:39:23.272Z,8.37
2024-03-05T18:41:54.181Z,8.43
2024-03-05T18:44:22.651Z,9.00
2024-03-05T18:46:51.885Z,10.27
2024-03-05T18:49:21.126Z,9.97
2024-03-05T18:51:51.327Z,12.00
2024-03-05T18:54:23.424Z,11.30
2024-03-05T18:56:52.690Z,10.37
2024-03-05T18:59:24.392Z,9.80
2024-03-05T19:01:53.842Z,9.90
2024-03-05T19:04:22.495Z,9.43
2024-03-05T19:06:51.304Z,9.43
2024-03-05T19:09:21.316Z,9.90
2024-03-05T19:11:49.924Z,9.70
2024-03-05T19:14:18.945Z,10.70
2024-03-05T19:16:50.546Z,13.10
2024-03-05T19:19:20.063Z,13.47
2024-03-05T19:21:48.929Z,12.60
2024-03-05T19:24:17.919Z,14.43
2024-03-05T19:26:48.845Z,13.23
2024-03-05T19:29:19.977Z,13.13
2024-03-05T19:31:48.961Z,13.73
2024-03-05T19:34:21.104Z,16.37
2024-03-05T19:36:50.665Z,15.00
2024-03-05T19:39:19.602Z,32.23
2024-03-05T19:41:49.945Z,15.23
2024-03-05T19:44:19.928Z,14.33
2024-03-05T19:46:51.249Z,15.90
2024-03-05T19:49:20.781Z,15.17
2024-03-05T19:51:51.048Z,13.27
2024-03-05T19:54:20.662Z,13.33
2024-03-05T19:56:51.336Z,13.70
2024-03-05T19:59:20.030Z,12.77
2024-03-05T20:01:48.956Z,12.97
2024-03-05T20:04:18.194Z,11.80
2024-03-05T20:06:50.473Z,14.00
2024-03-05T20:09:21.623Z,14.07
2024-03-05T20:11:51.712Z,13.37
2024-03-05T20:14:20.508Z,13.77
2024-03-05T20:16:49.994Z,13.23
2024-03-05T20:19:19.149Z,17.53
2024-03-05T20:21:50.169Z,15.63
2024-03-05T20:24:18.736Z,17.27
2024-03-05T20:26:48.617Z,12.93
2024-03-05T20:29:21.960Z,12.27
2024-03-05T20:31:50.517Z,20.03
2024-03-05T20:34:20.706Z,13.73
2024-03-05T20:36:49.990Z,12.63
2024-03-05T20:39:20.478Z,15.70
2024-03-05T20:41:49.171Z,12.40
2024-03-05T20:44:19.432Z,14.97
2024-03-05T20:46:48.814Z,13.73
2024-03-05T20:49:17.573Z,13.10
2024-03-05T20:51:46.764Z,14.63
2024-03-05T20:54:15.381Z,12.30
2024-03-05T20:56:43.967Z,12.10
2024-03-05T20:59:12.674Z,13.47
2024-03-05T21:01:45.795Z,13.93
2024-03-05T21:04:15.408Z,13.00
2024-03-05T21:06:44.037Z,14.97
2024-03-05T21:09:14.564Z,14.00
2024-03-05T21:11:44.060Z,15.43
2024-03-05T21:14:13.093Z,15.53
2024-03-05T21:16:45.041Z,16.03
2024-03-05T21:19:13.641Z,18.10
2024-03-05T21:21:42.693Z,17.97
2024-03-05T21:24:11.463Z,18.60
2024-03-05T21:26:54.335Z,18.70
2024-03-05T21:29:29.073Z,20.00
2024-03-05T21:32:01.261Z,20.13
2024-03-05T21:34:31.571Z,19.27
2024-03-05T21:37:00.304Z,31.83
2024-03-05T21:39:29.306Z,21.07
2024-03-05T21:41:57.993Z,19.77
2024-03-05T21:44:34.802Z,31.10
2024-03-05T21:47:12.670Z,22.57
2024-03-05T21:49:41.328Z,20.57
2024-03-05T21:52:09.887Z,20.90
2024-03-05T21:54:38.453Z,20.77
2024-03-05T21:57:07.588Z,20.33
2024-03-05T21:59:37.548Z,20.00
2024-03-05T22:02:08.050Z,22.83
2024-03-05T23:59:14.201Z,21.20
